TimeEST,TemperatureF,Dew PointF,Humidity,Sea Level PressureIn,VisibilityMPH,Wind Direction,Wind SpeedMPH,Gust SpeedMPH,PrecipitationIn,Events,Conditions,WindDirDegrees,DateUTC
12:53 AM,57.9,51.1,78,30.25,10.0,Calm,Calm,-,N/A,,Partly Cloudy,0,2013-01-25 05:53:00
1:53 AM,59.0,51.1,75,30.25,10.0,NNW,3.5,-,N/A,,Partly Cloudy,330,2013-01-25 06:53:00
2:53 AM,57.9,51.1,78,30.24,10.0,NNW,3.5,-,N/A,,Scattered Clouds,330,2013-01-25 07:53:00
3:53 AM,57.9,50.0,75,30.23,10.0,NW,6.9,-,N/A,,Scattered Clouds,320,2013-01-25 08:53:00
4:53 AM,59.0,51.1,75,30.23,10.0,NW,3.5,-,N/A,,Mostly Cloudy,320,2013-01-25 09:53:00
5:53 AM,55.9,48.0,75,30.24,10.0,NNW,6.9,-,N/A,,Partly Cloudy,330,2013-01-25 10:53:00
6:53 AM,55.9,48.9,77,30.25,10.0,NW,4.6,-,N/A,,Mostly Cloudy,320,2013-01-25 11:53:00
7:53 AM,57.9,51.1,78,30.27,10.0,NW,3.5,-,N/A,,Scattered Clouds,320,2013-01-25 12:53:00
8:53 AM,64.0,50.0,60,30.27,10.0,NNW,11.5,-,N/A,,Partly Cloudy,330,2013-01-25 13:53:00
9:53 AM,68.0,48.9,50,30.29,10.0,NNW,9.2,-,N/A,,Scattered Clouds,340,2013-01-25 14:53:00
10:53 AM,72.0,50.0,46,30.28,10.0,NNW,6.9,-,N/A,,Scattered Clouds,340,2013-01-25 15:53:00
11:53 AM,73.9,54.0,50,30.27,10.0,NNE,6.9,-,N/A,,Partly Cloudy,30,2013-01-25 16:53:00
12:53 PM,75.0,55.9,51,30.23,10.0,NE,6.9,-,N/A,,Scattered Clouds,40,2013-01-25 17:53:00
1:53 PM,75.0,55.9,51,30.21,10.0,ENE,8.1,-,N/A,,Scattered Clouds,60,2013-01-25 18:53:00
2:53 PM,75.9,55.9,50,30.19,10.0,NNE,10.4,-,N/A,,Scattered Clouds,30,2013-01-25 19:53:00
3:53 PM,73.9,55.9,53,30.19,10.0,ENE,8.1,-,N/A,,Scattered Clouds,60,2013-01-25 20:53:00
4:53 PM,73.0,57.0,57,30.19,10.0,NNE,4.6,-,N/A,,Scattered Clouds,30,2013-01-25 21:53:00
5:53 PM,72.0,57.0,59,30.20,10.0,NNE,4.6,-,N/A,,Partly Cloudy,20,2013-01-25 22:53:00
6:53 PM,68.0,55.9,65,30.20,10.0,NNW,3.5,-,N/A,,Partly Cloudy,340,2013-01-25 23:53:00
7:53 PM,64.9,55.9,73,30.21,10.0,NNW,3.5,-,N/A,,Partly Cloudy,330,2013-01-26 00:53:00
8:53 PM,64.0,55.9,75,30.21,10.0,Calm,Calm,-,N/A,,Partly Cloudy,0,2013-01-26 01:53:00
9:53 PM,62.1,57.0,84,30.21,10.0,Calm,Calm,-,N/A,,Partly Cloudy,0,2013-01-26 02:53:00
10:53 PM,62.1,57.0,84,30.22,10.0,NW,5.8,-,N/A,,Partly Cloudy,320,2013-01-26 03:53:00
11:53 PM,62.1,57.0,84,30.21,10.0,NW,4.6,-,N/A,,Scattered Clouds,310,2013-01-26 04:53:00